Time;durP1;ratioP1;P1;durP2;ratioP2;P2;SDS_P1;SDS_P2;PMS_P1;PMS_P2;Temp;Humidity;BMP_temperature;BMP_pressure;BME280_temperature;BME280_humidity;BME280_pressure;Samples;Min_cycle;Max_cycle;Signal;HPM_P1;HPM_P2
2023/01/31 00:02:06;;;;;;;;;;;;;;;21.25;38.02;102439.84;7261674;19;154178;-76
2023/01/31 00:04:35;;;;;;;;;;;;;;;21.28;37.75;102444.91;7261293;19;153582;-76
2023/01/31 00:07:02;;;;;;;;;;;;;;;21.28;38.01;102444.91;7261392;19;153837;-76
2023/01/31 00:09:29;;;;;;;;;;;;;;;21.29;37.77;102427.78;7271049;19;154516;-77
2023/01/31 00:11:56;;;;;;;;;;;;;;;21.30;37.71;102442.66;7262434;19;153362;-76
2023/01/31 00:14:24;;;;;;;;;;;;;;;21.28;37.84;102442.94;7263026;19;153756;-76
2023/01/31 00:16:52;;;;;;;;;;;;;;;21.29;37.66;102455.03;7262147;19;154641;-76
2023/01/31 00:19:20;;;;;;;;;;;;;;;21.29;37.97;102449.41;7264400;19;153513;-78
2023/01/31 00:21:47;;;;;;;;;;;;;;;21.27;37.45;102446.88;7264540;19;154732;-77
2023/01/31 00:24:14;;;;;;;;;;;;;;;21.27;37.54;102448.81;7265047;19;154101;-77
2023/01/31 00:26:41;;;;;;;;;;;;;;;21.23;37.58;102431.69;7256621;19;153283;-76
2023/01/31 00:29:09;;;;;;;;;;;;;;;21.24;37.86;102429.72;7262389;19;153418;-76
2023/01/31 00:31:36;;;;;;;;;;;;;;;21.21;37.68;102407.78;7268418;19;154123;-78
2023/01/31 00:34:04;;;;;;;;;;;;;;;21.21;37.99;102390.94;7261335;19;153994;-78
2023/01/31 00:36:32;;;;;;;;;;;;;;;21.19;38.03;102393.16;7263305;19;156098;-77
2023/01/31 00:39:01;;;;;;;;;;;;;;;21.18;38.40;102395.13;7265160;19;154266;-77
2023/01/31 00:41:29;;;;;;;;;;;;;;;21.17;38.04;102384.13;7266492;19;153209;-78
2023/01/31 00:43:56;;;;;;;;;;;;;;;21.15;38.36;102392.88;7265087;19;156725;-79
2023/01/31 00:46:24;;;;;;;;;;;;;;;21.15;38.39;102387.25;7265102;19;153766;-77
2023/01/31 00:48:51;;;;;;;;;;;;;;;21.13;38.12;102377.38;7265294;19;154402;-77
2023/01/31 00:51:20;;;;;;;;;;;;;;;21.11;38.27;102388.91;7260711;19;155689;-76
2023/01/31 00:53:47;;;;;;;;;;;;;;;21.13;38.50;102391.44;7271551;19;152583;-76
2023/01/31 00:56:18;;;;;;;;;;;;;;;21.12;38.18;102384.94;7260687;19;155141;-77
2023/01/31 00:58:45;;;;;;;;;;;;;;;21.13;38.40;102383.88;7260420;19;153496;-77
2023/01/31 01:01:14;;;;;;;;;;;;;;;21.12;38.50;102381.31;7259930;19;154091;-77
2023/01/31 01:03:42;;;;;;;;;;;;;;;21.10;38.80;102387.19;7259600;19;153951;-78
2023/01/31 01:06:09;;;;;;;;;;;;;;;21.07;39.05;102395.34;7258332;19;153328;-77
2023/01/31 01:08:37;;;;;;;;;;;;;;;21.03;39.14;102386.59;7260919;19;152275;-76
2023/01/31 01:11:06;;;;;;;;;;;;;;;21.03;39.30;102371.75;7260150;19;154413;-78
2023/01/31 01:13:36;;;;;;;;;;;;;;;21.03;38.91;102383.78;7267281;19;153739;-77
2023/01/31 01:16:04;;;;;;;;;;;;;;;20.99;39.07;102382.66;7261219;19;155834;-77
2023/01/31 01:18:34;;;;;;;;;;;;;;;20.99;39.13;102382.66;7262096;19;153807;-77
2023/01/31 01:21:04;;;;;;;;;;;;;;;20.94;38.98;102377.03;7260487;19;153829;-76
2023/01/31 01:23:31;;;;;;;;;;;;;;;20.95;39.30;102363.81;7260087;19;154179;-77
2023/01/31 01:25:58;;;;;;;;;;;;;;;20.92;38.90;102381.25;7260265;19;154177;-77
2023/01/31 01:28:25;;;;;;;;;;;;;;;20.87;38.86;102379.25;7257578;19;153315;-77
2023/01/31 01:30:55;;;;;;;;;;;;;;;20.84;38.87;102360.16;7259149;19;156738;-77
2023/01/31 01:33:22;;;;;;;;;;;;;;;20.81;39.07;102367.16;7257096;19;154491;-77
2023/01/31 01:35:49;;;;;;;;;;;;;;;20.78;39.18;102367.72;7265251;19;153888;-78
2023/01/31 01:38:17;;;;;;;;;;;;;;;20.76;39.20;102352.25;7256131;19;154599;-76
2023/01/31 01:40:44;;;;;;;;;;;;;;;20.72;38.93;102353.91;7257131;19;154626;-77
2023/01/31 01:43:11;;;;;;;;;;;;;;;20.71;39.16;102355.91;7255905;19;154195;-76
2023/01/31 01:45:38;;;;;;;;;;;;;;;20.67;39.39;102357.56;7258679;19;153344;-76
2023/01/31 01:48:08;;;;;;;;;;;;;;;20.69;39.42;102349.72;7258000;19;154299;-76
2023/01/31 01:50:40;;;;;;;;;;;;;;;20.67;39.69;102354.75;7258661;19;153040;-77
2023/01/31 01:53:10;;;;;;;;;;;;;;;20.66;39.32;102361.50;7260646;19;154990;-78
2023/01/31 01:55:40;;;;;;;;;;;;;;;20.60;39.22;102361.75;7260422;19;154495;-78
2023/01/31 01:58:10;;;;;;;;;;;;;;;20.59;39.51;102366.53;7263455;19;153496;-78
2023/01/31 02:00:37;;;;;;;;;;;;;;;20.58;39.74;102364.00;7253965;19;155460;-78
2023/01/31 02:03:06;;;;;;;;;;;;;;;20.53;39.43;102359.22;7257224;19;153780;-76
2023/01/31 02:05:37;;;;;;;;;;;;;;;20.51;39.67;102375.47;7255418;19;154775;-77
2023/01/31 02:08:04;;;;;;;;;;;;;;;20.49;39.34;102366.47;7256964;19;153917;-78
2023/01/31 02:10:31;;;;;;;;;;;;;;;20.46;39.69;102363.38;7255075;19;154500;-77
2023/01/31 02:12:58;;;;;;;;;;;;;;;20.42;39.84;102363.06;7258179;19;154324;-76
2023/01/31 02:15:26;;;;;;;;;;;;;;;20.41;40.16;102364.19;7259809;19;154962;-75
2023/01/31 02:17:53;;;;;;;;;;;;;;;20.38;40.15;102362.78;7255156;19;154111;-76
2023/01/31 02:20:24;;;;;;;;;;;;;;;20.33;40.42;102348.72;7265845;19;153857;-76
2023/01/31 02:22:53;;;;;;;;;;;;;;;20.34;40.22;102346.75;7259248;19;154771;-77
2023/01/31 02:25:23;;;;;;;;;;;;;;;20.33;40.55;102351.53;7260792;19;154856;-76
2023/01/31 02:28:00;;;;;;;;;;;;;;;20.31;40.30;102350.09;7257324;19;153713;-77
2023/01/31 02:30:30;;;;;;;;;;;;;;;20.25;40.78;102338.00;7257849;19;153960;-76
2023/01/31 02:33:01;;;;;;;;;;;;;;;20.23;40.60;102340.22;7257404;19;153597;-79
2023/01/31 02:35:31;;;;;;;;;;;;;;;20.24;40.64;102341.06;7258997;19;154681;-78
2023/01/31 02:38:01;;;;;;;;;;;;;;;20.22;40.74;102340.47;7258385;19;154567;-79
2023/01/31 02:40:39;;;;;;;;;;;;;;;20.20;40.48;102328.69;7258338;19;153841;-77
2023/01/31 02:43:06;;;;;;;;;;;;;;;20.17;40.41;102320.81;7264819;19;153522;-77
2023/01/31 02:45:34;;;;;;;;;;;;;;;20.13;40.79;102316.84;7258764;19;154255;-77
2023/01/31 02:48:03;;;;;;;;;;;;;;;20.11;40.85;102321.91;7259507;19;154541;-76
2023/01/31 02:50:30;;;;;;;;;;;;;;;20.05;40.77;102325.78;7253949;19;155279;-76
2023/01/31 02:52:58;;;;;;;;;;;;;;;20.07;40.67;102320.75;7258502;19;153215;-78
2023/01/31 02:57:59;;;;;;;;;;;;;;;20.01;40.92;102319.03;7256667;19;155441;-76
2023/01/31 03:00:28;;;;;;;;;;;;;;;19.99;40.83;102319.28;7259838;19;154141;-76
2023/01/31 03:02:55;;;;;;;;;;;;;;;19.98;41.13;102321.28;7262746;19;154195;-78
2023/01/31 03:05:22;;;;;;;;;;;;;;;19.97;40.98;102313.97;7263609;19;153583;-76
2023/01/31 03:07:54;;;;;;;;;;;;;;;19.94;41.15;102308.88;7260908;19;154166;-76
2023/01/31 03:10:22;;;;;;;;;;;;;;;19.94;40.80;102302.47;7259159;19;155855;-76
2023/01/31 03:12:52;;;;;;;;;;;;;;;19.91;41.25;102315.06;7254453;19;153474;-77
2023/01/31 03:15:22;;;;;;;;;;;;;;;19.87;41.01;102293.44;7257551;19;153577;-77
2023/01/31 03:17:58;;;;;;;;;;;;;;;19.85;41.16;102299.28;7256889;19;153791;-77
2023/01/31 03:20:26;;;;;;;;;;;;;;;19.85;41.46;102298.47;7255908;19;153642;-77
2023/01/31 03:22:57;;;;;;;;;;;;;;;19.83;41.25;102300.69;7255565;19;154558;-77
2023/01/31 03:25:28;;;;;;;;;;;;;;;19.81;41.32;102298.16;7259338;19;156042;-77
2023/01/31 03:27:58;;;;;;;;;;;;;;;19.79;41.27;102294.78;7260386;19;154595;-77
2023/01/31 03:30:30;;;;;;;;;;;;;;;19.79;41.34;102286.38;7258911;19;154164;-79
2023/01/31 03:33:00;;;;;;;;;;;;;;;19.77;41.43;102290.53;7256487;19;153448;-77
2023/01/31 03:35:29;;;;;;;;;;;;;;;19.73;41.29;102287.44;7258857;19;154018;-77
2023/01/31 03:38:03;;;;;;;;;;;;;;;19.77;40.98;102298.97;7254909;19;153837;-76
2023/01/31 03:40:33;;;;;;;;;;;;;;;19.72;41.54;102291.34;7253709;19;154307;-76
2023/01/31 03:43:04;;;;;;;;;;;;;;;19.73;41.02;102270.63;7255232;19;155512;-76
2023/01/31 03:45:34;;;;;;;;;;;;;;;19.73;41.16;102245.38;7255911;19;153571;-75
2023/01/31 03:48:02;;;;;;;;;;;;;;;19.69;41.20;102255.47;7263889;19;152952;-76
2023/01/31 03:50:33;;;;;;;;;;;;;;;19.68;41.38;102252.91;7252605;19;156045;-76
2023/01/31 03:53:06;;;;;;;;;;;;;;;19.70;41.02;102250.69;7255196;19;153673;-76
2023/01/31 03:55:36;;;;;;;;;;;;;;;19.65;41.08;102256.28;7256116;19;153525;-76
2023/01/31 03:58:05;;;;;;;;;;;;;;;19.64;41.50;102251.78;7255351;19;153502;-76
2023/01/31 04:00:34;;;;;;;;;;;;;;;19.64;41.00;102258.22;7257205;19;153490;-76
2023/01/31 04:03:04;;;;;;;;;;;;;;;19.62;41.02;102251.22;7256605;19;153240;-75
2023/01/31 04:05:31;;;;;;;;;;;;;;;19.60;41.01;102254.28;7254315;19;153410;-77
2023/01/31 04:07:59;;;;;;;;;;;;;;;19.60;41.00;102251.47;7256378;19;152909;-76
2023/01/31 04:10:26;;;;;;;;;;;;;;;19.57;41.11;102249.22;7267265;19;153950;-76
2023/01/31 04:12:53;;;;;;;;;;;;;;;19.56;41.57;102255.09;7255815;19;153627;-75
2023/01/31 04:15:20;;;;;;;;;;;;;;;19.53;41.66;102256.50;7258299;19;154198;-76
2023/01/31 04:17:48;;;;;;;;;;;;;;;19.52;41.69;102263.19;7256726;19;153407;-75
2023/01/31 04:20:15;;;;;;;;;;;;;;;19.50;41.44;102262.63;7254689;19;154518;-77
2023/01/31 04:22:42;;;;;;;;;;;;;;;19.54;41.33;102258.16;7254659;19;154585;-76
2023/01/31 04:25:10;;;;;;;;;;;;;;;19.50;41.68;102249.44;7259641;19;153466;-76
2023/01/31 04:27:38;;;;;;;;;;;;;;;19.47;41.57;102249.16;7262841;19;153402;-76
2023/01/31 04:30:06;;;;;;;;;;;;;;;19.48;41.77;102257.28;7261273;19;153579;-76
2023/01/31 04:32:33;;;;;;;;;;;;;;;19.48;41.76;102259.25;7267737;19;155110;-77
2023/01/31 04:35:01;;;;;;;;;;;;;;;19.47;41.91;102263.16;7264285;19;154554;-76
2023/01/31 04:37:28;;;;;;;;;;;;;;;19.42;42.03;102263.09;7259984;19;153230;-77
2023/01/31 04:39:55;;;;;;;;;;;;;;;19.43;41.73;102257.25;7264254;19;153183;-77
2023/01/31 04:42:23;;;;;;;;;;;;;;;19.42;41.76;102257.47;7263504;19;154838;-77
2023/01/31 04:44:50;;;;;;;;;;;;;;;19.37;41.78;102255.47;7261627;19;153501;-77
2023/01/31 04:47:17;;;;;;;;;;;;;;;19.38;41.85;102250.72;7263353;19;153704;-76
2023/01/31 04:49:44;;;;;;;;;;;;;;;19.35;41.78;102251.28;7263136;19;153827;-76
2023/01/31 04:52:11;;;;;;;;;;;;;;;19.37;42.23;102251.84;7261688;19;157677;-77
2023/01/31 04:54:38;;;;;;;;;;;;;;;19.36;42.05;102255.75;7272876;19;153084;-76
2023/01/31 04:57:05;;;;;;;;;;;;;;;19.38;41.99;102240.38;7259880;19;154390;-77
2023/01/31 04:59:33;;;;;;;;;;;;;;;19.37;41.79;102246.22;7261064;19;153643;-77
2023/01/31 05:02:01;;;;;;;;;;;;;;;19.30;42.17;102243.69;7260611;19;155542;-77
2023/01/31 05:04:28;;;;;;;;;;;;;;;19.34;41.86;102238.38;7262869;19;154521;-77
2023/01/31 05:06:55;;;;;;;;;;;;;;;19.28;41.90;102226.28;7260963;19;153551;-76
2023/01/31 05:09:23;;;;;;;;;;;;;;;19.29;41.65;102246.72;7262597;19;154931;-77
2023/01/31 05:11:51;;;;;;;;;;;;;;;19.27;42.00;102235.78;7261936;19;154299;-76
2023/01/31 05:14:19;;;;;;;;;;;;;;;19.29;41.94;102233.56;7269327;19;154243;-76
2023/01/31 05:16:47;;;;;;;;;;;;;;;19.25;41.84;102237.19;7261004;19;156067;-77
2023/01/31 05:19:15;;;;;;;;;;;;;;;19.24;42.01;102227.06;7259908;19;152736;-77
2023/01/31 05:24:12;;;;;;;;;;;;;;;19.28;41.73;102236.63;7263140;19;154507;-76
2023/01/31 05:26:40;;;;;;;;;;;;;;;19.28;42.13;102233.84;7262276;19;154184;-76
2023/01/31 05:29:07;;;;;;;;;;;;;;;19.30;42.59;102226.00;7260888;19;153610;-77
2023/01/31 05:31:34;;;;;;;;;;;;;;;19.36;42.28;102222.13;7262470;19;155388;-76
2023/01/31 05:34:01;;;;;;;;;;;;;;;19.39;42.63;102216.84;7265962;19;153014;-76
2023/01/31 05:36:29;;;;;;;;;;;;;;;19.43;42.79;102222.75;7265975;19;153851;-75
2023/01/31 05:38:56;;;;;;;;;;;;;;;19.46;42.53;102225.88;7261684;19;152315;-76
2023/01/31 05:41:23;;;;;;;;;;;;;;;19.53;42.27;102220.84;7256756;19;155764;-75
2023/01/31 05:43:51;;;;;;;;;;;;;;;19.58;42.23;102224.84;7263685;19;154526;-75
2023/01/31 05:46:18;;;;;;;;;;;;;;;19.64;42.18;102218.97;7264632;19;152823;-76
2023/01/31 05:48:45;;;;;;;;;;;;;;;19.71;42.44;102207.53;7264298;19;155036;-76
2023/01/31 05:51:12;;;;;;;;;;;;;;;19.76;42.29;102199.16;7263376;19;156473;-75
2023/01/31 05:53:39;;;;;;;;;;;;;;;19.81;42.38;102201.94;7262758;19;153604;-75
2023/01/31 05:56:06;;;;;;;;;;;;;;;19.87;41.93;102206.47;7263983;19;153828;-76
2023/01/31 05:58:33;;;;;;;;;;;;;;;19.92;42.05;102198.09;7266819;19;155249;-75
2023/01/31 06:01:00;;;;;;;;;;;;;;;19.97;41.67;102195.31;7260186;19;155268;-76
2023/01/31 06:03:28;;;;;;;;;;;;;;;20.03;41.76;102187.75;7256672;19;154144;-77
2023/01/31 06:05:55;;;;;;;;;;;;;;;20.08;41.83;102182.16;7258310;19;154048;-76
2023/01/31 06:08:22;;;;;;;;;;;;;;;20.13;41.62;102180.19;7263713;19;153515;-75
2023/01/31 06:10:49;;;;;;;;;;;;;;;20.17;41.55;102186.94;7260227;19;154072;-76
2023/01/31 06:13:16;;;;;;;;;;;;;;;20.22;41.89;102186.97;7258751;19;154146;-77
2023/01/31 06:15:44;;;;;;;;;;;;;;;20.27;41.61;102188.94;7259578;19;154732;-76
2023/01/31 06:18:12;;;;;;;;;;;;;;;20.32;41.55;102186.19;7257424;19;156073;-76
2023/01/31 06:20:39;;;;;;;;;;;;;;;20.37;41.07;102191.81;7264238;19;154123;-76
2023/01/31 06:23:07;;;;;;;;;;;;;;;20.42;41.14;102189.03;7254936;19;154110;-76
2023/01/31 06:25:34;;;;;;;;;;;;;;;20.46;41.16;102187.34;7257805;19;154501;-76
2023/01/31 06:28:02;;;;;;;;;;;;;;;20.50;41.23;102182.00;7257771;19;153698;-77
2023/01/31 06:30:29;;;;;;;;;;;;;;;20.56;41.40;102186.53;7258748;19;154476;-77
2023/01/31 06:32:58;;;;;;;;;;;;;;;20.60;41.22;102194.09;7259778;19;153173;-77
2023/01/31 06:35:25;;;;;;;;;;;;;;;20.66;40.85;102192.16;7259377;19;152978;-77
2023/01/31 06:37:53;;;;;;;;;;;;;;;20.68;40.57;102187.94;7260365;19;153598;-76
2023/01/31 06:40:22;;;;;;;;;;;;;;;20.74;40.38;102174.75;7258912;19;153231;-77
2023/01/31 06:42:49;;;;;;;;;;;;;;;20.77;39.99;102169.41;7262716;19;155195;-77
2023/01/31 06:45:16;;;;;;;;;;;;;;;20.81;40.23;102178.94;7260715;19;154387;-77
2023/01/31 06:47:44;;;;;;;;;;;;;;;20.85;40.10;102168.84;7256914;19;152765;-78
2023/01/31 06:50:11;;;;;;;;;;;;;;;20.90;40.26;102162.38;7259198;19;155497;-77
2023/01/31 06:52:39;;;;;;;;;;;;;;;20.95;40.18;102167.16;7257026;19;153374;-76
2023/01/31 06:55:10;;;;;;;;;;;;;;;20.98;39.76;102161.84;7255783;19;153969;-77
2023/01/31 06:57:42;;;;;;;;;;;;;;;21.03;39.55;102164.59;7254160;19;154346;-77
2023/01/31 07:00:11;;;;;;;;;;;;;;;21.06;39.95;102157.59;7257143;19;154745;-78
2023/01/31 07:02:38;;;;;;;;;;;;;;;21.10;39.40;102164.34;7256979;19;153638;-76
2023/01/31 07:05:06;;;;;;;;;;;;;;;21.11;39.89;102161.25;7260670;19;156216;-77
2023/01/31 07:07:33;;;;;;;;;;;;;;;21.13;39.87;102161.81;7257760;19;155589;-77
2023/01/31 07:10:00;;;;;;;;;;;;;;;21.16;39.48;102157.63;7258082;19;155225;-74
2023/01/31 07:12:27;;;;;;;;;;;;;;;21.19;39.47;102146.66;7254311;19;154752;-75
2023/01/31 07:14:55;;;;;;;;;;;;;;;21.18;39.53;102146.94;7258779;19;153265;-74
2023/01/31 07:17:22;;;;;;;;;;;;;;;21.20;39.43;102161.56;7258506;19;153475;-75
2023/01/31 07:19:49;;;;;;;;;;;;;;;21.23;40.35;102159.00;7258366;19;153549;-74
2023/01/31 07:22:17;;;;;;;;;;;;;;;21.22;39.45;102164.91;7254777;19;154564;-74
2023/01/31 07:24:44;;;;;;;;;;;;;;;21.20;38.86;102158.75;7267884;19;153778;-74
2023/01/31 07:27:12;;;;;;;;;;;;;;;21.19;39.18;102154.25;7255771;19;154017;-73
2023/01/31 07:29:40;;;;;;;;;;;;;;;21.17;38.75;102153.66;7251410;19;154038;-73
2023/01/31 07:32:07;;;;;;;;;;;;;;;21.14;38.82;102162.69;7255591;19;153058;-76
2023/01/31 07:35:13;;;;;;;;;;;;;;;21.12;38.81;102148.06;7254178;19;154773;-74
2023/01/31 07:38:16;;;;;;;;;;;;;;;21.11;38.65;102158.44;7249225;19;154925;-74
2023/01/31 07:41:10;;;;;;;;;;;;;;;21.15;38.67;102164.38;7253990;19;153481;-74
2023/01/31 07:43:37;;;;;;;;;;;;;;;21.18;38.79;102160.97;7256336;19;155209;-73
2023/01/31 07:46:07;;;;;;;;;;;;;;;21.19;39.04;102159.88;7253806;19;154700;-74
2023/01/31 07:48:35;;;;;;;;;;;;;;;21.21;38.76;102149.19;7267848;19;153548;-74
2023/01/31 07:51:02;;;;;;;;;;;;;;;21.24;39.09;102151.41;7254053;19;154257;-77
2023/01/31 07:53:34;;;;;;;;;;;;;;;21.19;38.33;102159.88;7256888;19;154324;-74
2023/01/31 07:56:04;;;;;;;;;;;;;;;20.72;36.83;102169.41;7257614;19;153804;-73
2023/01/31 07:58:33;;;;;;;;;;;;;;;20.93;36.89;102161.84;7255078;19;155574;-74
2023/01/31 08:03:36;;;;;;;;;;;;;;;21.03;36.86;102175.03;7260144;19;153806;-73
2023/01/31 08:06:08;;;;;;;;;;;;;;;21.06;36.79;102186.53;7255547;19;154054;-74
2023/01/31 08:08:52;;;;;;;;;;;;;;;21.07;37.39;102184.59;7260853;19;153380;-73
2023/01/31 08:11:35;;;;;;;;;;;;;;;21.10;37.36;102175.56;7241849;19;155060;-74
2023/01/31 08:14:24;;;;;;;;;;;;;;;21.11;36.87;102178.13;7247943;19;153942;-73
2023/01/31 08:16:52;;;;;;;;;;;;;;;21.12;37.42;102178.97;7258817;19;155550;-73
2023/01/31 08:19:19;;;;;;;;;;;;;;;21.15;37.02;102181.22;7258080;19;154176;-73
2023/01/31 08:21:46;;;;;;;;;;;;;;;21.16;37.16;102175.34;7261793;19;153442;-74
2023/01/31 08:24:13;;;;;;;;;;;;;;;21.15;37.13;102175.59;7259241;19;152980;-73
2023/01/31 08:26:42;;;;;;;;;;;;;;;21.17;37.17;102164.91;7260990;19;154682;-73
2023/01/31 08:29:10;;;;;;;;;;;;;;;21.19;37.36;102174.75;7261854;19;154095;-73
2023/01/31 08:31:39;;;;;;;;;;;;;;;21.22;37.34;102167.72;7260774;19;154551;-74
2023/01/31 08:34:06;;;;;;;;;;;;;;;21.26;37.33;102158.44;7268781;19;153212;-73
2023/01/31 08:36:34;;;;;;;;;;;;;;;21.28;37.23;102146.91;7261560;19;153563;-73
2023/01/31 08:39:03;;;;;;;;;;;;;;;21.31;36.83;102149.16;7259232;19;156161;-73
2023/01/31 08:41:31;;;;;;;;;;;;;;;21.32;36.95;102145.22;7261574;19;153462;-73
2023/01/31 08:43:58;;;;;;;;;;;;;;;21.35;37.08;102157.88;7259284;19;155080;-73
2023/01/31 08:46:30;;;;;;;;;;;;;;;21.35;37.20;102149.44;7256171;19;155235;-73
2023/01/31 08:48:59;;;;;;;;;;;;;;;21.37;37.23;102158.41;7255878;19;152760;-73
2023/01/31 08:51:26;;;;;;;;;;;;;;;21.36;37.32;102151.09;7256693;19;153689;-73
2023/01/31 08:53:54;;;;;;;;;;;;;;;21.34;37.13;102134.53;7257695;19;154179;-73
2023/01/31 08:56:25;;;;;;;;;;;;;;;21.34;37.06;102157.03;7266127;19;153165;-75
2023/01/31 08:58:52;;;;;;;;;;;;;;;21.38;37.21;102151.66;7253939;19;154124;-73
2023/01/31 09:01:20;;;;;;;;;;;;;;;21.37;37.30;102145.22;7259975;19;154954;-78
2023/01/31 09:03:49;;;;;;;;;;;;;;;21.36;37.13;102137.03;7254728;19;155101;-72
2023/01/31 09:06:18;;;;;;;;;;;;;;;21.36;37.61;102142.66;7254930;19;153890;-72
2023/01/31 09:08:45;;;;;;;;;;;;;;;21.33;37.16;102152.53;7259008;19;155019;-73
2023/01/31 09:11:16;;;;;;;;;;;;;;;21.31;37.04;102143.53;7259376;19;153817;-73
2023/01/31 09:13:43;;;;;;;;;;;;;;;21.26;37.22;102144.38;7255576;19;153756;-72
2023/01/31 09:16:12;;;;;;;;;;;;;;;21.27;37.23;102143.25;7258034;19;153526;-72
2023/01/31 09:18:40;;;;;;;;;;;;;;;21.22;37.17;102126.41;7266241;19;155154;-73
2023/01/31 09:21:10;;;;;;;;;;;;;;;21.20;37.35;102133.44;7258414;19;152960;-73
2023/01/31 09:23:38;;;;;;;;;;;;;;;21.21;37.24;102132.31;7255077;19;153147;-73
2023/01/31 09:26:08;;;;;;;;;;;;;;;21.17;37.36;102126.41;7255623;19;153878;-73
2023/01/31 09:28:35;;;;;;;;;;;;;;;21.14;37.28;102128.94;7258336;19;154460;-73
2023/01/31 09:31:04;;;;;;;;;;;;;;;21.12;37.16;102134.00;7257770;19;154570;-73
2023/01/31 09:33:33;;;;;;;;;;;;;;;21.06;37.21;102141.59;7255751;19;154329;-73
2023/01/31 09:36:03;;;;;;;;;;;;;;;21.06;37.36;102137.94;7256738;19;152608;-73
2023/01/31 09:38:31;;;;;;;;;;;;;;;21.03;37.42;102130.88;7263221;19;152336;-73
2023/01/31 09:41:00;;;;;;;;;;;;;;;21.02;37.44;102143.28;7256846;19;153562;-74
2023/01/31 09:43:29;;;;;;;;;;;;;;;21.07;37.41;102128.38;7258568;19;153625;-74
2023/01/31 09:45:59;;;;;;;;;;;;;;;21.07;37.62;102150.88;7261195;19;155393;-78
2023/01/31 09:48:29;;;;;;;;;;;;;;;21.10;37.22;102141.84;7261541;19;154378;-78
2023/01/31 09:50:57;;;;;;;;;;;;;;;21.12;37.20;102137.63;7258946;19;153182;-77
2023/01/31 09:53:28;;;;;;;;;;;;;;;21.16;37.28;102137.94;7259590;19;154061;-77
2023/01/31 09:55:58;;;;;;;;;;;;;;;21.17;37.35;102146.09;7260276;19;153629;-76
2023/01/31 09:58:25;;;;;;;;;;;;;;;21.17;37.51;102137.66;7260696;19;155122;-76
2023/01/31 10:01:00;;;;;;;;;;;;;;;21.17;37.22;102148.88;7263134;19;153658;-78
2023/01/31 10:03:30;;;;;;;;;;;;;;;21.19;37.10;102163.53;7258233;19;153127;-77
2023/01/31 10:06:03;;;;;;;;;;;;;;;21.19;37.44;102168.28;7254556;19;154889;-77
2023/01/31 10:08:30;;;;;;;;;;;;;;;21.19;37.47;102168.28;7258358;19;152197;-77
2023/01/31 10:11:00;;;;;;;;;;;;;;;21.19;37.55;102171.94;7225032;19;156861;-76
2023/01/31 10:13:30;;;;;;;;;;;;;;;21.21;37.02;102172.50;7252099;19;156167;-77
2023/01/31 10:16:03;;;;;;;;;;;;;;;21.20;37.49;102159.59;7258265;19;153467;-74
2023/01/31 10:18:34;;;;;;;;;;;;;;;21.19;37.76;102176.72;7257982;19;153557;-73
2023/01/31 10:21:04;;;;;;;;;;;;;;;21.20;37.63;102182.06;7258327;19;154695;-74
2023/01/31 10:23:33;;;;;;;;;;;;;;;21.19;37.64;102177.56;7265867;19;153100;-74
2023/01/31 10:26:01;;;;;;;;;;;;;;;21.20;37.68;102178.41;7258985;19;154899;-74
2023/01/31 10:28:31;;;;;;;;;;;;;;;21.18;37.66;102155.34;7258260;19;153602;-73
2023/01/31 10:31:04;;;;;;;;;;;;;;;21.18;37.35;102156.19;7257305;19;153645;-74
2023/01/31 10:33:34;;;;;;;;;;;;;;;21.14;37.53;102160.72;7253385;19;153913;-73
2023/01/31 10:36:07;;;;;;;;;;;;;;;21.15;37.71;102170.00;7253824;19;153437;-74
2023/01/31 10:38:40;;;;;;;;;;;;;;;21.12;37.36;102167.72;7256481;19;154697;-73
2023/01/31 10:41:13;;;;;;;;;;;;;;;21.13;37.58;102170.25;7254891;19;153760;-74
2023/01/31 10:43:43;;;;;;;;;;;;;;;21.10;37.73;102153.09;7255086;19;154798;-73
2023/01/31 10:46:13;;;;;;;;;;;;;;;21.06;37.87;102137.94;7264451;19;153199;-76
2023/01/31 10:48:43;;;;;;;;;;;;;;;21.04;37.57;102137.34;7256085;19;154174;-75
2023/01/31 10:51:17;;;;;;;;;;;;;;;21.06;37.49;102146.34;7254451;19;153271;-74
2023/01/31 10:53:53;;;;;;;;;;;;;;;21.03;37.80;102130.06;7257755;19;155108;-75
2023/01/31 10:56:23;;;;;;;;;;;;;;;21.01;38.04;102143.56;7257608;19;153547;-75
2023/01/31 10:58:50;;;;;;;;;;;;;;;20.99;37.95;102142.97;7255992;19;153888;-74
2023/01/31 11:01:18;;;;;;;;;;;;;;;20.97;37.93;102142.44;7253060;19;154177;-75
2023/01/31 11:03:48;;;;;;;;;;;;;;;20.93;38.00;102142.16;7253608;19;153168;-73
2023/01/31 11:06:16;;;;;;;;;;;;;;;20.92;37.99;102137.66;7250251;19;153995;-72
2023/01/31 11:08:46;;;;;;;;;;;;;;;20.89;38.21;102138.25;7261752;19;153644;-74
2023/01/31 11:11:16;;;;;;;;;;;;;;;20.92;37.95;102134.00;7253297;19;154625;-73
2023/01/31 11:13:47;;;;;;;;;;;;;;;20.92;38.16;102134.84;7250049;19;155609;-74
2023/01/31 11:16:14;;;;;;;;;;;;;;;20.94;38.11;102129.78;7254129;19;153072;-73
2023/01/31 11:18:43;;;;;;;;;;;;;;;20.96;38.36;102123.88;7255486;19;155252;-74
2023/01/31 11:21:18;;;;;;;;;;;;;;;20.99;38.20;102118.53;7257271;19;153944;-74
2023/01/31 11:23:45;;;;;;;;;;;;;;;21.03;38.09;102116.84;7255099;19;153686;-73
2023/01/31 11:26:23;;;;;;;;;;;;;;;21.08;38.25;102110.38;7252850;19;155911;-74
2023/01/31 11:28:51;;;;;;;;;;;;;;;21.10;38.22;102108.97;7254751;19;154188;-73
2023/01/31 11:31:23;;;;;;;;;;;;;;;21.14;38.18;102110.13;7262048;19;154041;-73
2023/01/31 11:33:55;;;;;;;;;;;;;;;21.13;38.06;102111.25;7259104;19;156464;-73
2023/01/31 11:36:23;;;;;;;;;;;;;;;21.17;38.18;102111.50;7261723;19;153960;-73
2023/01/31 11:38:50;;;;;;;;;;;;;;;21.19;38.05;102106.47;7261076;19;153949;-73
2023/01/31 11:41:20;;;;;;;;;;;;;;;21.20;38.02;102103.38;7259653;19;154033;-73
2023/01/31 11:43:47;;;;;;;;;;;;;;;21.21;38.09;102107.84;7257939;19;153219;-73
2023/01/31 11:46:14;;;;;;;;;;;;;;;21.22;38.33;102089.84;7260901;19;153602;-73
2023/01/31 11:48:42;;;;;;;;;;;;;;;21.24;38.30;102096.06;7259277;19;156383;-74
2023/01/31 11:51:26;;;;;;;;;;;;;;;21.25;37.97;102085.66;7266971;19;153276;-74
2023/01/31 11:53:53;;;;;;;;;;;;;;;21.28;38.13;102079.44;7259261;19;153781;-74
2023/01/31 11:56:23;;;;;;;;;;;;;;;21.29;38.32;102089.56;7260349;19;154310;-74
2023/01/31 11:58:54;;;;;;;;;;;;;;;21.28;38.35;102080.28;7261460;19;153044;-78
2023/01/31 12:01:22;;;;;;;;;;;;;;;21.26;38.45;102076.91;7262591;19;153864;-75
2023/01/31 12:03:52;;;;;;;;;;;;;;;21.27;38.19;102078.59;7234233;19;154887;-73
2023/01/31 12:06:29;;;;;;;;;;;;;;;21.27;38.26;102080.56;7258352;19;154253;-73
2023/01/31 12:08:57;;;;;;;;;;;;;;;21.24;38.17;102081.16;7258118;19;153808;-73
2023/01/31 12:11:27;;;;;;;;;;;;;;;21.21;38.13;102070.50;7262926;19;153920;-73
2023/01/31 12:13:57;;;;;;;;;;;;;;;21.23;38.49;102060.63;7267678;19;155281;-73
2023/01/31 12:16:26;;;;;;;;;;;;;;;21.20;38.52;102066.84;7258377;19;153685;-73
2023/01/31 12:18:54;;;;;;;;;;;;;;;21.20;38.52;102060.38;7259200;19;154459;-75
2023/01/31 12:21:22;;;;;;;;;;;;;;;21.20;38.39;102051.94;7260160;19;154654;-73
2023/01/31 12:23:52;;;;;;;;;;;;;;;21.17;38.57;102050.53;7257383;19;153479;-73
2023/01/31 12:26:20;;;;;;;;;;;;;;;21.16;38.24;102046.06;7259213;19;152814;-74
2023/01/31 12:28:51;;;;;;;;;;;;;;;21.15;38.41;102049.13;7256505;19;154433;-73
2023/01/31 12:31:21;;;;;;;;;;;;;;;21.13;38.75;102048.56;7259290;19;153418;-73
2023/01/31 12:33:48;;;;;;;;;;;;;;;21.13;38.68;102045.75;7259256;19;154302;-73
2023/01/31 12:36:24;;;;;;;;;;;;;;;21.12;38.73;102042.06;7263047;19;154600;-73
2023/01/31 12:38:54;;;;;;;;;;;;;;;21.12;38.72;102042.06;7259056;19;155612;-73
2023/01/31 12:41:22;;;;;;;;;;;;;;;21.12;38.73;102046.88;7260109;19;154198;-73
2023/01/31 12:43:50;;;;;;;;;;;;;;;21.10;38.69;102029.44;7255541;19;152726;-74
2023/01/31 12:46:17;;;;;;;;;;;;;;;21.11;38.74;102039.56;7257764;19;154632;-73